Apple Creek, Ohio
Current Conditions -  °F | °C
As of 12:04 PM on Thursday 30 Oct 2014 (Local Time) from KBJJ Reporting Station
Overcast Overcast  
Wind Chill: 44°   Ceiling: 3800
Heat Index: 48°   Visibility: 10mi
Dew Point: 37°   Wind: 8mph
Humidity: 66%   Direction: 330°NNW
Pressure: 30.14"   Gusts: NA
Location:  40.75°N, 81.84°W
Report Text: KBJJ 301604Z AUTO 33007KT 10SM FEW021 SCT027 OVC038 09/03 A3014 RMK AO2 T00890028 TSNO
Loading
Personal Weather Stations






























Interactive Weather Map
Tropical Storm Tracking
New forecast layout! Learn more

10-Day Weather Forecast

Advertisements
Track Severe Weather on mobile